sensor_id;sensor_type;location;lat;lon;timestamp;pressure;altitude;pressure_sealevel;temperature;humidity
54978;BME280;40873;47.522;19.106;2023-03-15T00:01:59;99101.19;;;9.50;100.00
54978;BME280;40873;47.522;19.106;2023-03-15T00:04:27;99102.59;;;9.43;100.00
54978;BME280;40873;47.522;19.106;2023-03-15T00:06:54;99113.50;;;9.50;100.00
54978;BME280;40873;47.522;19.106;2023-03-15T00:09:21;99120.06;;;9.44;100.00
54978;BME280;40873;47.522;19.106;2023-03-15T00:11:48;99119.50;;;9.52;100.00
54978;BME280;40873;47.522;19.106;2023-03-15T00:14:17;99119.59;;;9.39;100.00
54978;BME280;40873;47.522;19.106;2023-03-15T00:16:44;99119.59;;;9.39;100.00
54978;BME280;40873;47.522;19.106;2023-03-15T00:19:11;99120.88;;;9.33;100.00
54978;BME280;40873;47.522;19.106;2023-03-15T00:21:39;99132.97;;;9.36;100.00
54978;BME280;40873;47.522;19.106;2023-03-15T00:24:09;99140.47;;;9.29;100.00
54978;BME280;40873;47.522;19.106;2023-03-15T00:26:37;99142.78;;;9.34;100.00
54978;BME280;40873;47.522;19.106;2023-03-15T00:29:04;99142.06;;;9.32;100.00
54978;BME280;40873;47.522;19.106;2023-03-15T00:31:31;99149.00;;;9.33;100.00
54978;BME280;40873;47.522;19.106;2023-03-15T00:33:59;99144.78;;;9.30;100.00
54978;BME280;40873;47.522;19.106;2023-03-15T00:36:26;99146.19;;;9.23;100.00
54978;BME280;40873;47.522;19.106;2023-03-15T00:38:54;99141.31;;;9.30;100.00
54978;BME280;40873;47.522;19.106;2023-03-15T00:41:23;99123.13;;;9.27;100.00
54978;BME280;40873;47.522;19.106;2023-03-15T00:43:50;99120.25;;;9.19;100.00
54978;BME280;40873;47.522;19.106;2023-03-15T00:46:18;99124.47;;;9.32;100.00
54978;BME280;40873;47.522;19.106;2023-03-15T00:48:47;99122.78;;;9.31;100.00
54978;BME280;40873;47.522;19.106;2023-03-15T00:51:17;99116.59;;;9.32;100.00
54978;BME280;40873;47.522;19.106;2023-03-15T00:53:45;99113.72;;;9.36;100.00
54978;BME280;40873;47.522;19.106;2023-03-15T00:56:18;99110.09;;;9.25;100.00
54978;BME280;40873;47.522;19.106;2023-03-15T00:58:45;99105.56;;;9.27;99.63
54978;BME280;40873;47.522;19.106;2023-03-15T01:01:18;99109.75;;;9.30;99.79
54978;BME280;40873;47.522;19.106;2023-03-15T01:03:47;99111.97;;;9.23;98.38
54978;BME280;40873;47.522;19.106;2023-03-15T01:06:17;99103.72;;;9.17;99.03
54978;BME280;40873;47.522;19.106;2023-03-15T01:08:44;99096.19;;;9.12;98.10
54978;BME280;40873;47.522;19.106;2023-03-15T01:11:18;99101.66;;;9.09;97.72
54978;BME280;40873;47.522;19.106;2023-03-15T01:13:45;99106.06;;;9.09;97.26
54978;BME280;40873;47.522;19.106;2023-03-15T01:16:13;99105.03;;;9.11;96.58
54978;BME280;40873;47.522;19.106;2023-03-15T01:18:40;99108.50;;;9.12;95.99
54978;BME280;40873;47.522;19.106;2023-03-15T01:21:13;99113.00;;;9.10;96.72
54978;BME280;40873;47.522;19.106;2023-03-15T01:23:40;99115.38;;;9.01;96.70
54978;BME280;40873;47.522;19.106;2023-03-15T01:26:11;99118.97;;;9.00;95.31
54978;BME280;40873;47.522;19.106;2023-03-15T01:28:38;99119.91;;;8.99;95.90
54978;BME280;40873;47.522;19.106;2023-03-15T01:31:06;99106.88;;;8.98;94.83
54978;BME280;40873;47.522;19.106;2023-03-15T01:33:33;99109.78;;;9.06;94.54
54978;BME280;40873;47.522;19.106;2023-03-15T01:36:05;99114.03;;;8.96;95.06
54978;BME280;40873;47.522;19.106;2023-03-15T01:38:33;99112.22;;;8.96;95.17
54978;BME280;40873;47.522;19.106;2023-03-15T01:41:00;99120.75;;;9.00;94.89
54978;BME280;40873;47.522;19.106;2023-03-15T01:43:29;99113.88;;;8.86;95.08
54978;BME280;40873;47.522;19.106;2023-03-15T01:48:34;99114.75;;;8.74;94.99
54978;BME280;40873;47.522;19.106;2023-03-15T01:51:13;99108.31;;;8.78;94.78
54978;BME280;40873;47.522;19.106;2023-03-15T01:53:42;99102.16;;;8.66;95.21
54978;BME280;40873;47.522;19.106;2023-03-15T01:56:13;99111.72;;;8.67;94.93
54978;BME280;40873;47.522;19.106;2023-03-15T01:58:42;99103.13;;;8.65;95.52
54978;BME280;40873;47.522;19.106;2023-03-15T02:01:13;99101.00;;;8.70;93.56
54978;BME280;40873;47.522;19.106;2023-03-15T02:03:42;99101.56;;;8.63;94.37
54978;BME280;40873;47.522;19.106;2023-03-15T02:06:19;99098.41;;;8.58;94.52
54978;BME280;40873;47.522;19.106;2023-03-15T02:08:54;99087.78;;;8.59;93.92
54978;BME280;40873;47.522;19.106;2023-03-15T02:11:24;99099.38;;;8.57;94.20
54978;BME280;40873;47.522;19.106;2023-03-15T02:13:53;99101.25;;;8.55;95.13
54978;BME280;40873;47.522;19.106;2023-03-15T02:16:21;99099.81;;;8.50;94.73
54978;BME280;40873;47.522;19.106;2023-03-15T02:18:49;99102.19;;;8.54;93.78
54978;BME280;40873;47.522;19.106;2023-03-15T02:21:35;99104.09;;;8.51;93.63
54978;BME280;40873;47.522;19.106;2023-03-15T02:26:53;99113.69;;;8.40;94.06
54978;BME280;40873;47.522;19.106;2023-03-15T02:29:23;99106.56;;;8.42;93.54
54978;BME280;40873;47.522;19.106;2023-03-15T02:31:51;99116.56;;;8.37;93.06
54978;BME280;40873;47.522;19.106;2023-03-15T02:34:19;99108.66;;;8.37;93.13
54978;BME280;40873;47.522;19.106;2023-03-15T02:36:51;99115.28;;;8.30;93.42
54978;BME280;40873;47.522;19.106;2023-03-15T02:39:21;99117.25;;;8.26;93.82
54978;BME280;40873;47.522;19.106;2023-03-15T02:41:56;99114.97;;;8.21;93.90
54978;BME280;40873;47.522;19.106;2023-03-15T02:44:33;99123.69;;;8.22;94.52
54978;BME280;40873;47.522;19.106;2023-03-15T02:47:24;99134.09;;;8.23;94.53
54978;BME280;40873;47.522;19.106;2023-03-15T02:49:52;99131.28;;;8.14;95.09
54978;BME280;40873;47.522;19.106;2023-03-15T02:52:20;99128.84;;;8.11;95.63
54978;BME280;40873;47.522;19.106;2023-03-15T02:54:48;99122.75;;;8.10;96.01
54978;BME280;40873;47.522;19.106;2023-03-15T02:57:17;99130.53;;;8.12;96.04
54978;BME280;40873;47.522;19.106;2023-03-15T02:59:44;99120.25;;;8.09;97.15
54978;BME280;40873;47.522;19.106;2023-03-15T03:02:11;99126.88;;;8.02;97.05
54978;BME280;40873;47.522;19.106;2023-03-15T03:04:39;99130.44;;;8.01;98.01
54978;BME280;40873;47.522;19.106;2023-03-15T03:07:07;99132.13;;;8.02;97.93
54978;BME280;40873;47.522;19.106;2023-03-15T03:09:34;99137.78;;;7.95;99.01
54978;BME280;40873;47.522;19.106;2023-03-15T03:12:01;99131.28;;;8.01;98.66
54978;BME280;40873;47.522;19.106;2023-03-15T03:14:28;99132.00;;;8.03;98.37
54978;BME280;40873;47.522;19.106;2023-03-15T03:16:59;99135.59;;;8.02;98.41
54978;BME280;40873;47.522;19.106;2023-03-15T03:19:27;99134.00;;;8.00;98.96
54978;BME280;40873;47.522;19.106;2023-03-15T03:21:54;99132.66;;;7.94;99.29
54978;BME280;40873;47.522;19.106;2023-03-15T03:24:21;99135.78;;;7.99;99.19
54978;BME280;40873;47.522;19.106;2023-03-15T03:26:51;99133.81;;;8.03;98.96
54978;BME280;40873;47.522;19.106;2023-03-15T03:29:24;99131.38;;;8.00;98.47
54978;BME280;40873;47.522;19.106;2023-03-15T03:31:51;99126.56;;;7.93;98.25
54978;BME280;40873;47.522;19.106;2023-03-15T03:34:18;99123.00;;;7.94;97.74
54978;BME280;40873;47.522;19.106;2023-03-15T03:36:45;99124.44;;;7.98;96.80
54978;BME280;40873;47.522;19.106;2023-03-15T03:39:14;99131.28;;;8.01;96.48
54978;BME280;40873;47.522;19.106;2023-03-15T03:41:41;99122.34;;;8.04;95.51
54978;BME280;40873;47.522;19.106;2023-03-15T03:44:08;99125.19;;;8.01;95.75
54978;BME280;40873;47.522;19.106;2023-03-15T03:46:35;99126.03;;;8.01;95.42
54978;BME280;40873;47.522;19.106;2023-03-15T03:49:02;99128.84;;;7.98;95.91
54978;BME280;40873;47.522;19.106;2023-03-15T03:51:29;99121.72;;;8.00;95.02
54978;BME280;40873;47.522;19.106;2023-03-15T03:53:56;99129.28;;;8.05;94.89
54978;BME280;40873;47.522;19.106;2023-03-15T03:56:23;99120.13;;;8.10;94.13
54978;BME280;40873;47.522;19.106;2023-03-15T03:58:50;99122.22;;;8.05;94.26
54978;BME280;40873;47.522;19.106;2023-03-15T04:01:17;99113.84;;;8.00;95.05
54978;BME280;40873;47.522;19.106;2023-03-15T04:03:44;99116.47;;;8.00;94.19
54978;BME280;40873;47.522;19.106;2023-03-15T04:06:11;99113.22;;;7.96;94.90
54978;BME280;40873;47.522;19.106;2023-03-15T04:08:38;99115.81;;;8.09;90.07
54978;BME280;40873;47.522;19.106;2023-03-15T04:11:06;99112.03;;;8.13;90.33
54978;BME280;40873;47.522;19.106;2023-03-15T04:13:33;99108.06;;;8.08;90.50
54978;BME280;40873;47.522;19.106;2023-03-15T04:16:00;99115.41;;;8.03;91.95
54978;BME280;40873;47.522;19.106;2023-03-15T04:18:29;99115.84;;;7.96;91.29
54978;BME280;40873;47.522;19.106;2023-03-15T04:20:56;99118.47;;;7.96;91.20
54978;BME280;40873;47.522;19.106;2023-03-15T04:23:23;99118.56;;;7.95;91.21
54978;BME280;40873;47.522;19.106;2023-03-15T04:25:51;99125.81;;;7.91;90.75
54978;BME280;40873;47.522;19.106;2023-03-15T04:28:20;99128.00;;;7.85;89.70
54978;BME280;40873;47.522;19.106;2023-03-15T04:30:49;99133.06;;;7.88;89.36
54978;BME280;40873;47.522;19.106;2023-03-15T04:33:16;99140.13;;;7.87;88.42
54978;BME280;40873;47.522;19.106;2023-03-15T04:35:43;99143.03;;;7.83;87.64
54978;BME280;40873;47.522;19.106;2023-03-15T04:38:10;99150.31;;;7.79;87.20
54978;BME280;40873;47.522;19.106;2023-03-15T04:40:38;99149.88;;;7.73;86.06
54978;BME280;40873;47.522;19.106;2023-03-15T04:43:05;99155.53;;;7.66;86.43
54978;BME280;40873;47.522;19.106;2023-03-15T04:45:32;99162.75;;;7.63;85.05
54978;BME280;40873;47.522;19.106;2023-03-15T04:48:00;99167.06;;;7.51;84.19
54978;BME280;40873;47.522;19.106;2023-03-15T04:50:28;99166.63;;;7.45;84.42
54978;BME280;40873;47.522;19.106;2023-03-15T04:52:58;99163.25;;;7.42;84.65
54978;BME280;40873;47.522;19.106;2023-03-15T04:55:26;99187.25;;;7.36;85.29
54978;BME280;40873;47.522;19.106;2023-03-15T04:57:53;99184.00;;;7.33;86.49
54978;BME280;40873;47.522;19.106;2023-03-15T05:00:21;99183.91;;;7.34;86.44
54978;BME280;40873;47.522;19.106;2023-03-15T05:02:48;99186.69;;;7.19;86.51
54978;BME280;40873;47.522;19.106;2023-03-15T05:05:21;99193.38;;;7.10;87.43
54978;BME280;40873;47.522;19.106;2023-03-15T05:07:49;99197.19;;;7.19;86.99
54978;BME280;40873;47.522;19.106;2023-03-15T05:10:16;99208.28;;;6.95;86.99
54978;BME280;40873;47.522;19.106;2023-03-15T05:12:43;99201.84;;;6.86;87.21
54978;BME280;40873;47.522;19.106;2023-03-15T05:15:11;99203.25;;;6.92;87.00
54978;BME280;40873;47.522;19.106;2023-03-15T05:17:39;99206.75;;;6.78;87.54
54978;BME280;40873;47.522;19.106;2023-03-15T05:20:06;99210.31;;;6.77;87.55
54978;BME280;40873;47.522;19.106;2023-03-15T05:22:37;99206.53;;;6.81;87.51
54978;BME280;40873;47.522;19.106;2023-03-15T05:25:04;99200.88;;;6.60;87.95
54978;BME280;40873;47.522;19.106;2023-03-15T05:27:31;99190.97;;;6.51;88.60
54978;BME280;40873;47.522;19.106;2023-03-15T05:30:00;99193.88;;;6.47;88.99
54978;BME280;40873;47.522;19.106;2023-03-15T05:32:29;99199.31;;;6.44;89.08
54978;BME280;40873;47.522;19.106;2023-03-15T05:35:01;99201.19;;;6.42;90.16
54978;BME280;40873;47.522;19.106;2023-03-15T05:37:28;99193.31;;;6.13;90.50
54978;BME280;40873;47.522;19.106;2023-03-15T05:39:55;99198.25;;;6.18;90.50
54978;BME280;40873;47.522;19.106;2023-03-15T05:42:22;99196.13;;;6.10;91.52
54978;BME280;40873;47.522;19.106;2023-03-15T05:44:52;99185.00;;;6.07;91.88
54978;BME280;40873;47.522;19.106;2023-03-15T05:47:19;99191.06;;;5.93;92.89
54978;BME280;40873;47.522;19.106;2023-03-15T05:49:48;99191.06;;;5.93;93.50
54978;BME280;40873;47.522;19.106;2023-03-15T05:52:15;99194.63;;;5.92;93.81
54978;BME280;40873;47.522;19.106;2023-03-15T05:54:42;99217.81;;;5.82;94.22
54978;BME280;40873;47.522;19.106;2023-03-15T05:57:10;99199.50;;;5.82;94.51
54978;BME280;40873;47.522;19.106;2023-03-15T05:59:37;99204.28;;;5.90;94.81
54978;BME280;40873;47.522;19.106;2023-03-15T06:02:05;99209.47;;;5.91;95.98
54978;BME280;40873;47.522;19.106;2023-03-15T06:04:32;99220.00;;;5.90;95.35
54978;BME280;40873;47.522;19.106;2023-03-15T06:06:59;99221.97;;;5.86;95.93
54978;BME280;40873;47.522;19.106;2023-03-15T06:09:26;99221.75;;;5.89;96.77
54978;BME280;40873;47.522;19.106;2023-03-15T06:11:53;99220.59;;;5.95;96.21
54978;BME280;40873;47.522;19.106;2023-03-15T06:14:20;99226.63;;;5.81;96.87
54978;BME280;40873;47.522;19.106;2023-03-15T06:16:47;99224.94;;;5.80;97.29
54978;BME280;40873;47.522;19.106;2023-03-15T06:19:14;99239.16;;;5.90;97.60
54978;BME280;40873;47.522;19.106;2023-03-15T06:21:41;99238.19;;;5.93;97.04
54978;BME280;40873;47.522;19.106;2023-03-15T06:24:08;99235.78;;;5.88;97.92
54978;BME280;40873;47.522;19.106;2023-03-15T06:26:35;99231.50;;;5.87;97.91
54978;BME280;40873;47.522;19.106;2023-03-15T06:29:02;99237.75;;;5.85;99.03
54978;BME280;40873;47.522;19.106;2023-03-15T06:31:29;99244.09;;;5.81;99.03
54978;BME280;40873;47.522;19.106;2023-03-15T06:33:56;99244.84;;;5.83;99.13
54978;BME280;40873;47.522;19.106;2023-03-15T06:36:23;99250.75;;;5.86;98.78
54978;BME280;40873;47.522;19.106;2023-03-15T06:38:53;99244.47;;;5.89;99.48
54978;BME280;40873;47.522;19.106;2023-03-15T06:41:20;99239.16;;;5.90;99.54
54978;BME280;40873;47.522;19.106;2023-03-15T06:43:47;99241.75;;;6.06;98.53
54978;BME280;40873;47.522;19.106;2023-03-15T06:46:14;99238.56;;;6.01;98.94
54978;BME280;40873;47.522;19.106;2023-03-15T06:48:41;99247.47;;;5.98;98.45
54978;BME280;40873;47.522;19.106;2023-03-15T06:51:08;99249.41;;;5.95;98.81
54978;BME280;40873;47.522;19.106;2023-03-15T06:53:35;99240.50;;;5.97;98.23
54978;BME280;40873;47.522;19.106;2023-03-15T06:56:02;99255.50;;;6.10;97.17
54978;BME280;40873;47.522;19.106;2023-03-15T06:58:29;99255.41;;;6.11;97.67
54978;BME280;40873;47.522;19.106;2023-03-15T07:00:56;99268.34;;;6.14;96.60
54978;BME280;40873;47.522;19.106;2023-03-15T07:03:23;99270.13;;;6.28;96.77
54978;BME280;40873;47.522;19.106;2023-03-15T07:05:50;99271.44;;;6.21;96.00
54978;BME280;40873;47.522;19.106;2023-03-15T07:08:20;99274.53;;;6.27;95.44
54978;BME280;40873;47.522;19.106;2023-03-15T07:10:47;99275.06;;;6.32;95.46
54978;BME280;40873;47.522;19.106;2023-03-15T07:13:17;99284.34;;;6.38;95.00
54978;BME280;40873;47.522;19.106;2023-03-15T07:15:44;99282.88;;;6.34;95.20
54978;BME280;40873;47.522;19.106;2023-03-15T07:18:11;99291.81;;;6.30;95.39
54978;BME280;40873;47.522;19.106;2023-03-15T07:20:38;99294.44;;;6.30;95.44
54978;BME280;40873;47.522;19.106;2023-03-15T07:23:05;99290.59;;;6.21;95.62
54978;BME280;40873;47.522;19.106;2023-03-15T07:25:32;99296.97;;;6.31;94.95
54978;BME280;40873;47.522;19.106;2023-03-15T07:28:18;99291.91;;;6.28;95.35
54978;BME280;40873;47.522;19.106;2023-03-15T07:30:59;99286.69;;;6.28;94.87
54978;BME280;40873;47.522;19.106;2023-03-15T07:33:29;99297.06;;;6.30;93.65
54978;BME280;40873;47.522;19.106;2023-03-15T07:35:57;99302.38;;;6.14;94.18
54978;BME280;40873;47.522;19.106;2023-03-15T07:38:26;99305.72;;;6.16;93.88
54978;BME280;40873;47.522;19.106;2023-03-15T07:40:57;99308.25;;;6.18;92.48
54978;BME280;40873;47.522;19.106;2023-03-15T07:43:24;99319.03;;;6.13;93.33
54978;BME280;40873;47.522;19.106;2023-03-15T07:45:51;99319.22;;;6.24;92.58
54978;BME280;40873;47.522;19.106;2023-03-15T07:48:19;99325.41;;;6.23;91.96
54978;BME280;40873;47.522;19.106;2023-03-15T07:50:46;99321.78;;;6.26;90.60
54978;BME280;40873;47.522;19.106;2023-03-15T07:53:13;99311.66;;;6.20;90.70
54978;BME280;40873;47.522;19.106;2023-03-15T07:55:40;99320.00;;;6.26;89.52
54978;BME280;40873;47.522;19.106;2023-03-15T07:58:07;99318.75;;;6.32;89.67
54978;BME280;40873;47.522;19.106;2023-03-15T08:00:34;99318.66;;;6.19;89.00
54978;BME280;40873;47.522;19.106;2023-03-15T08:03:01;99318.28;;;6.25;89.12
54978;BME280;40873;47.522;19.106;2023-03-15T08:05:28;99325.50;;;6.22;88.69
54978;BME280;40873;47.522;19.106;2023-03-15T08:07:56;99327.66;;;6.29;88.24
54978;BME280;40873;47.522;19.106;2023-03-15T08:10:22;99338.22;;;6.28;87.03
54978;BME280;40873;47.522;19.106;2023-03-15T08:12:49;99345.78;;;6.32;86.75
54978;BME280;40873;47.522;19.106;2023-03-15T08:15:17;99332.91;;;6.29;85.90
54978;BME280;40873;47.522;19.106;2023-03-15T08:17:46;99340.28;;;6.23;85.40
54978;BME280;40873;47.522;19.106;2023-03-15T08:20:14;99341.09;;;6.23;85.41
54978;BME280;40873;47.522;19.106;2023-03-15T08:22:48;99340.38;;;6.21;85.23
54978;BME280;40873;47.522;19.106;2023-03-15T08:25:18;99343.25;;;6.17;84.81
54978;BME280;40873;47.522;19.106;2023-03-15T08:27:46;99348.63;;;6.29;84.99
54978;BME280;40873;47.522;19.106;2023-03-15T08:30:14;99340.75;;;6.29;83.52
54978;BME280;40873;47.522;19.106;2023-03-15T08:32:43;99344.97;;;6.32;83.56
54978;BME280;40873;47.522;19.106;2023-03-15T08:35:11;99359.38;;;6.39;83.04
54978;BME280;40873;47.522;19.106;2023-03-15T08:37:42;99366.34;;;6.40;82.04
54978;BME280;40873;47.522;19.106;2023-03-15T08:40:15;99372.09;;;6.31;82.44
54978;BME280;40873;47.522;19.106;2023-03-15T08:42:42;99372.78;;;6.35;82.45
54978;BME280;40873;47.522;19.106;2023-03-15T08:45:09;99379.09;;;6.30;82.18
54978;BME280;40873;47.522;19.106;2023-03-15T08:47:37;99393.28;;;6.42;81.14
54978;BME280;40873;47.522;19.106;2023-03-15T08:50:07;99385.41;;;6.42;80.14
54978;BME280;40873;47.522;19.106;2023-03-15T08:52:35;99394.56;;;6.35;81.19
54978;BME280;40873;47.522;19.106;2023-03-15T08:55:02;99401.63;;;6.49;79.51
54978;BME280;40873;47.522;19.106;2023-03-15T08:57:33;99408.13;;;6.27;79.19
54978;BME280;40873;47.522;19.106;2023-03-15T09:00:02;99416.00;;;6.42;79.38
54978;BME280;40873;47.522;19.106;2023-03-15T09:02:36;99422.69;;;6.31;78.56
54978;BME280;40873;47.522;19.106;2023-03-15T09:05:03;99431.84;;;6.24;78.55
54978;BME280;40873;47.522;19.106;2023-03-15T09:07:33;99427.88;;;6.33;77.78
54978;BME280;40873;47.522;19.106;2023-03-15T09:10:00;99427.88;;;6.33;78.75
54978;BME280;40873;47.522;19.106;2023-03-15T09:12:30;99441.38;;;6.41;77.56
54978;BME280;40873;47.522;19.106;2023-03-15T09:14:57;99453.53;;;6.42;77.35
54978;BME280;40873;47.522;19.106;2023-03-15T09:17:24;99444.44;;;6.34;76.99
54978;BME280;40873;47.522;19.106;2023-03-15T09:19:51;99450.69;;;6.31;76.49
54978;BME280;40873;47.522;19.106;2023-03-15T09:22:18;99461.75;;;6.36;75.83
54978;BME280;40873;47.522;19.106;2023-03-15T09:25:03;99474.25;;;6.31;76.10
54978;BME280;40873;47.522;19.106;2023-03-15T09:27:31;99470.53;;;6.35;75.67
54978;BME280;40873;47.522;19.106;2023-03-15T09:29:59;99477.81;;;6.30;76.05
54978;BME280;40873;47.522;19.106;2023-03-15T09:32:26;99478.00;;;6.27;75.82
54978;BME280;40873;47.522;19.106;2023-03-15T09:34:53;99481.63;;;6.24;76.02
54978;BME280;40873;47.522;19.106;2023-03-15T09:37:21;99480.03;;;6.22;76.13
54978;BME280;40873;47.522;19.106;2023-03-15T09:39:48;99496.75;;;6.19;75.67
54978;BME280;40873;47.522;19.106;2023-03-15T09:42:20;99495.56;;;6.09;75.87
54978;BME280;40873;47.522;19.106;2023-03-15T09:44:57;99500.06;;;6.07;76.52
54978;BME280;40873;47.522;19.106;2023-03-15T09:50:28;99507.31;;;6.18;76.87
54978;BME280;40873;47.522;19.106;2023-03-15T09:53:01;99520.56;;;6.30;76.44
54978;BME280;40873;47.522;19.106;2023-03-15T09:55:30;99520.91;;;6.24;75.62
54978;BME280;40873;47.522;19.106;2023-03-15T09:58:10;99511.94;;;6.28;76.07
54978;BME280;40873;47.522;19.106;2023-03-15T10:00:45;99504.97;;;6.13;75.60
54978;BME280;40873;47.522;19.106;2023-03-15T10:03:31;99504.84;;;6.30;74.97
54978;BME280;40873;47.522;19.106;2023-03-15T10:06:04;99513.94;;;6.39;76.18
54978;BME280;40873;47.522;19.106;2023-03-15T10:08:33;99512.63;;;6.48;74.67
54978;BME280;40873;47.522;19.106;2023-03-15T10:14:38;99509.69;;;6.68;73.55
54978;BME280;40873;47.522;19.106;2023-03-15T10:17:12;99505.59;;;6.78;74.10
54978;BME280;40873;47.522;19.106;2023-03-15T10:19:51;99515.63;;;6.86;70.88
54978;BME280;40873;47.522;19.106;2023-03-15T10:27:49;99517.78;;;7.09;68.20
54978;BME280;40873;47.522;19.106;2023-03-15T10:30:26;99524.22;;;7.04;68.57
54978;BME280;40873;47.522;19.106;2023-03-15T10:32:58;99525.91;;;7.05;68.30
54978;BME280;40873;47.522;19.106;2023-03-15T10:35:27;99526.47;;;7.10;67.76
54978;BME280;40873;47.522;19.106;2023-03-15T10:37:54;99526.78;;;7.20;68.47
54978;BME280;40873;47.522;19.106;2023-03-15T10:40:47;99538.31;;;7.31;68.63
54978;BME280;40873;47.522;19.106;2023-03-15T10:43:23;99532.88;;;7.34;68.11
54978;BME280;40873;47.522;19.106;2023-03-15T10:46:01;99540.16;;;7.29;67.38
54978;BME280;40873;47.522;19.106;2023-03-15T10:48:36;99539.56;;;7.54;67.11
54978;BME280;40873;47.522;19.106;2023-03-15T10:51:18;99535.72;;;7.60;67.08
54978;BME280;40873;47.522;19.106;2023-03-15T10:56:24;99543.69;;;7.44;66.72
54978;BME280;40873;47.522;19.106;2023-03-15T10:58:53;99533.25;;;7.42;65.76
54978;BME280;40873;47.522;19.106;2023-03-15T11:01:41;99540.75;;;7.49;65.82
54978;BME280;40873;47.522;19.106;2023-03-15T11:04:23;99547.53;;;7.53;65.81
54978;BME280;40873;47.522;19.106;2023-03-15T11:09:21;99544.44;;;7.46;66.53
54978;BME280;40873;47.522;19.106;2023-03-15T11:12:03;99547.69;;;7.50;65.36
54978;BME280;40873;47.522;19.106;2023-03-15T11:17:04;99550.31;;;7.78;65.01
54978;BME280;40873;47.522;19.106;2023-03-15T11:19:38;99552.22;;;7.76;65.19
54978;BME280;40873;47.522;19.106;2023-03-15T11:22:11;99559.81;;;7.95;63.89
54978;BME280;40873;47.522;19.106;2023-03-15T11:24:39;99566.28;;;7.89;64.34
54978;BME280;40873;47.522;19.106;2023-03-15T11:27:15;99564.94;;;8.11;64.82
54978;BME280;40873;47.522;19.106;2023-03-15T11:29:48;99559.91;;;7.93;63.00
54978;BME280;40873;47.522;19.106;2023-03-15T11:32:30;99566.38;;;8.02;63.63
54978;BME280;40873;47.522;19.106;2023-03-15T11:35:05;99559.19;;;8.18;63.26
54978;BME280;40873;47.522;19.106;2023-03-15T11:37:54;99565.38;;;8.32;62.81
54978;BME280;40873;47.522;19.106;2023-03-15T11:40:49;99575.06;;;8.17;61.85
54978;BME280;40873;47.522;19.106;2023-03-15T11:43:49;99569.22;;;8.26;62.04
54978;BME280;40873;47.522;19.106;2023-03-15T11:46:31;99566.91;;;8.36;62.12
54978;BME280;40873;47.522;19.106;2023-03-15T11:49:25;99572.50;;;8.30;61.50
54978;BME280;40873;47.522;19.106;2023-03-15T11:51:49;99572.22;;;8.48;61.02
54978;BME280;40873;47.522;19.106;2023-03-15T11:54:17;99565.22;;;8.62;60.44
54978;BME280;40873;47.522;19.106;2023-03-15T12:04:45;99577.50;;;8.88;60.32
54978;BME280;40873;47.522;19.106;2023-03-15T12:09:50;99582.88;;;8.87;57.94
54978;BME280;40873;47.522;19.106;2023-03-15T12:17:54;99587.84;;;8.91;58.84
54978;BME280;40873;47.522;19.106;2023-03-15T12:20:36;99591.28;;;9.19;57.74
54978;BME280;40873;47.522;19.106;2023-03-15T12:28:50;99584.47;;;8.62;56.90
54978;BME280;40873;47.522;19.106;2023-03-15T12:31:18;99592.41;;;8.75;57.05
54978;BME280;40873;47.522;19.106;2023-03-15T12:33:50;99590.53;;;8.77;56.42
54978;BME280;40873;47.522;19.106;2023-03-15T12:36:20;99599.47;;;8.74;56.08
54978;BME280;40873;47.522;19.106;2023-03-15T12:39:01;99594.47;;;8.84;56.36
54978;BME280;40873;47.522;19.106;2023-03-15T12:41:49;99603.59;;;8.78;55.86
54978;BME280;40873;47.522;19.106;2023-03-15T12:44:24;99601.75;;;8.66;55.63
54978;BME280;40873;47.522;19.106;2023-03-15T12:46:53;99601.16;;;8.48;54.82
54978;BME280;40873;47.522;19.106;2023-03-15T12:54:43;99607.63;;;8.97;54.49
54978;BME280;40873;47.522;19.106;2023-03-15T12:57:14;99610.63;;;8.78;53.63
54978;BME280;40873;47.522;19.106;2023-03-15T12:59:55;99616.03;;;8.89;52.66
54978;BME280;40873;47.522;19.106;2023-03-15T13:02:34;99613.66;;;8.99;52.38
54978;BME280;40873;47.522;19.106;2023-03-15T13:12:56;99623.84;;;8.91;51.28
54978;BME280;40873;47.522;19.106;2023-03-15T13:15:30;99628.69;;;8.97;50.25
54978;BME280;40873;47.522;19.106;2023-03-15T13:18:10;99632.97;;;8.85;50.56
54978;BME280;40873;47.522;19.106;2023-03-15T13:21:02;99636.09;;;8.77;49.73
54978;BME280;40873;47.522;19.106;2023-03-15T13:23:33;99643.16;;;8.90;50.54
54978;BME280;40873;47.522;19.106;2023-03-15T13:29:17;99638.66;;;8.65;49.67
54978;BME280;40873;47.522;19.106;2023-03-15T13:31:59;99654.34;;;8.66;49.73
54978;BME280;40873;47.522;19.106;2023-03-15T13:34:28;99647.56;;;8.62;49.46
54978;BME280;40873;47.522;19.106;2023-03-15T13:36:58;99654.50;;;8.77;49.50
54978;BME280;40873;47.522;19.106;2023-03-15T13:39:30;99654.88;;;8.71;48.08
54978;BME280;40873;47.522;19.106;2023-03-15T13:42:02;99653.66;;;8.77;48.98
54978;BME280;40873;47.522;19.106;2023-03-15T13:44:31;99660.88;;;8.73;48.84
54978;BME280;40873;47.522;19.106;2023-03-15T13:46:59;99668.34;;;8.94;47.71
54978;BME280;40873;47.522;19.106;2023-03-15T13:49:31;99661.44;;;8.78;47.99
54978;BME280;40873;47.522;19.106;2023-03-15T13:52:01;99670.91;;;8.81;48.46
54978;BME280;40873;47.522;19.106;2023-03-15T13:54:30;99677.50;;;8.74;47.98
54978;BME280;40873;47.522;19.106;2023-03-15T13:59:51;99678.75;;;8.54;47.54
54978;BME280;40873;47.522;19.106;2023-03-15T14:02:36;99682.16;;;8.56;48.00
54978;BME280;40873;47.522;19.106;2023-03-15T14:05:15;99691.06;;;8.54;47.77
54978;BME280;40873;47.522;19.106;2023-03-15T14:07:45;99687.78;;;8.50;47.63
54978;BME280;40873;47.522;19.106;2023-03-15T14:10:35;99696.69;;;8.62;48.05
54978;BME280;40873;47.522;19.106;2023-03-15T14:13:30;99695.56;;;8.66;46.22
54978;BME280;40873;47.522;19.106;2023-03-15T14:16:13;99694.06;;;8.62;47.43
54978;BME280;40873;47.522;19.106;2023-03-15T14:18:41;99703.44;;;8.23;46.61
54978;BME280;40873;47.522;19.106;2023-03-15T14:21:17;99719.78;;;8.14;47.38
54978;BME280;40873;47.522;19.106;2023-03-15T14:23:47;99719.00;;;8.12;46.50